Route Details

Aircraft Information
Group: North America Fleet
Types: B738, B752, B762, B763
Route Data
Distance: 1017nm
Duration: 3h 20m
Origin METAR: KAFW 152353Z 16011KT 10SM BKN250 36/17 A2985 RMK AO2 SLP091 T03560167 10383 20344 56011
Dest. METAR: KONT 152353Z 25011G18KT 10SM FEW120 FEW180 36/13 A2978 RMK AO2 SLP062 CB DSNT E AND SE T03560133 10367 20311 56016
Freight Data
(for Aug 16, 2022)
Load Factor:
79%
Manifested Cargo: 50,360lbs
Financial History
Total Freight: 216,202lbs
Average Load: 0lbs/flt
Fuel Used: 100,752lbs
Avg. Fuel Used: 0lbs/flt
Fuel Expense: $51,818
Avg. Fuel Expense: $0
Avg. Fuel Cost: $0/lbs
Total Gross Income: $551,315
Pilot Pay: $667
Total Expenses: $109,919
Total Revenue: $387,303
Average Revenue: $0

Capitol Logistics 413




KAFW
Fort Worth Alliance Airport
Fort Worth, Texas
KONT
Ontario International Airport
Ontario, California

Activity Log

Date Flight Route Aircraft Duration
07/23/2022 CPX413 SWABR1 HULZE DCT TXO J72 ABQ J78 DRK DCT DAFNY SCBBY2 B763 2h 47m
07/09/2022 CPX413 SWABR1 HULZE DCT TXO J72 ABQ J78 DRK DCT DAFNY SCBBY2 B763 2h 41m
07/05/2022 CPX7496 SWABR1 HULZE DCT TXO J72 ABQ J78 DRK DCT DAFNY SCBBY2 B763 2h 58m